createdAt,value
2023-04-16T00:00:20.815Z,7.20
2023-04-16T00:03:42.578Z,7.10
2023-04-16T00:07:04.235Z,7.10
2023-04-16T00:10:25.793Z,7.10
2023-04-16T00:13:47.357Z,7.20
2023-04-16T00:17:10.333Z,7.20
2023-04-16T00:20:32.027Z,7.20
2023-04-16T00:23:53.583Z,7.10
2023-04-16T00:27:15.127Z,7.20
2023-04-16T00:30:36.758Z,7.10
2023-04-16T00:33:59.964Z,7.10
2023-04-16T00:37:21.492Z,7.20
2023-04-16T00:40:43.026Z,7.10
2023-04-16T00:44:04.570Z,7.10
2023-04-16T00:47:26.332Z,7.10
2023-04-16T00:50:49.346Z,7.10
2023-04-16T00:54:10.926Z,7.10
2023-04-16T00:57:32.464Z,7.10
2023-04-16T01:00:54.031Z,7.10
2023-04-16T01:04:15.712Z,7.10
2023-04-16T01:07:38.765Z,7.10
2023-04-16T01:11:00.322Z,7.10
2023-04-16T01:14:21.880Z,7.10
2023-04-16T01:17:44.262Z,7.10
2023-04-16T01:21:07.261Z,7.10
2023-04-16T01:24:28.823Z,7.10
2023-04-16T01:27:50.367Z,7.10
2023-04-16T01:31:11.980Z,7.10
2023-04-16T01:34:33.587Z,7.10
2023-04-16T01:37:56.450Z,7.10
2023-04-16T01:41:18.000Z,7.10
2023-04-16T01:44:39.562Z,7.10
2023-04-16T01:48:01.364Z,7.10
2023-04-16T01:51:22.969Z,7.10
2023-04-16T01:54:45.899Z,7.10
2023-04-16T01:58:07.468Z,7.00
2023-04-16T02:01:29.168Z,7.10
2023-04-16T02:04:50.765Z,7.10
2023-04-16T02:08:12.305Z,7.10
2023-04-16T02:11:35.263Z,7.00
2023-04-16T02:14:56.842Z,7.10
2023-04-16T02:18:18.629Z,7.10
2023-04-16T02:21:40.291Z,7.10
2023-04-16T02:25:01.835Z,7.10
2023-04-16T02:28:24.757Z,7.10
2023-04-16T02:31:46.410Z,7.10
2023-04-16T02:35:08.034Z,7.10
2023-04-16T02:38:29.630Z,7.10
2023-04-16T02:41:51.188Z,7.10
2023-04-16T02:45:14.355Z,7.00
2023-04-16T02:48:35.941Z,7.00
2023-04-16T02:51:57.496Z,7.00
2023-04-16T02:55:19.067Z,7.00
2023-04-16T02:58:40.646Z,7.10
2023-04-16T03:02:03.626Z,7.10
2023-04-16T03:05:25.205Z,7.00
2023-04-16T03:08:46.772Z,7.00
2023-04-16T03:12:08.415Z,7.00
2023-04-16T03:15:30.187Z,7.00
2023-04-16T03:18:53.132Z,7.00
2023-04-16T03:22:14.684Z,7.00
2023-04-16T03:25:36.245Z,7.00
2023-04-16T03:28:57.803Z,7.00
2023-04-16T03:32:19.423Z,7.00
2023-04-16T03:35:42.334Z,7.00
2023-04-16T03:39:03.905Z,7.00
2023-04-16T03:42:25.577Z,7.00
2023-04-16T03:45:47.297Z,7.00
2023-04-16T03:49:09.014Z,7.00
2023-04-16T03:52:31.984Z,7.00
2023-04-16T03:55:53.534Z,7.00
2023-04-16T03:59:15.072Z,7.00
2023-04-16T04:02:36.811Z,7.00
2023-04-16T04:05:58.499Z,7.00
2023-04-16T04:09:21.391Z,7.00
2023-04-16T04:12:43.088Z,7.00
2023-04-16T04:16:05.212Z,7.00
2023-04-16T04:19:26.797Z,6.90
2023-04-16T04:22:48.367Z,6.90
2023-04-16T04:26:11.282Z,6.90
2023-04-16T04:29:33.056Z,6.90
2023-04-16T04:32:54.659Z,6.90
2023-04-16T04:36:16.278Z,6.90
2023-04-16T04:39:37.803Z,6.90
2023-04-16T04:43:00.656Z,6.90
2023-04-16T04:46:22.303Z,6.90
2023-04-16T04:49:43.947Z,6.90
2023-04-16T04:53:05.485Z,6.90
2023-04-16T04:56:27.046Z,6.90
2023-04-16T04:59:49.945Z,6.90
2023-04-16T05:03:11.927Z,6.90
2023-04-16T05:06:33.552Z,6.90
2023-04-16T05:09:55.116Z,6.90
2023-04-16T05:13:16.641Z,6.90
2023-04-16T05:16:39.547Z,6.90
2023-04-16T05:20:01.162Z,6.90
2023-04-16T05:23:22.724Z,6.90
2023-04-16T05:26:44.285Z,6.90
2023-04-16T05:30:06.516Z,6.90
2023-04-16T05:33:29.398Z,6.90
2023-04-16T05:36:50.925Z,7.00
2023-04-16T05:40:13.192Z,6.90
2023-04-16T05:43:34.824Z,7.00
2023-04-16T05:46:56.370Z,7.00
2023-04-16T05:50:19.609Z,7.00
2023-04-16T05:53:41.172Z,6.90
2023-04-16T05:57:03.599Z,7.00
2023-04-16T06:00:26.007Z,7.00
2023-04-16T06:03:47.658Z,7.00
2023-04-16T06:07:10.602Z,7.00
2023-04-16T06:10:32.143Z,7.00
2023-04-16T06:13:53.914Z,7.00
2023-04-16T06:17:15.495Z,7.00
2023-04-16T06:20:37.580Z,7.00
2023-04-16T06:24:00.494Z,7.00
2023-04-16T06:27:22.368Z,7.00
2023-04-16T06:30:44.708Z,7.00
2023-04-16T06:34:06.774Z,7.00
2023-04-16T06:37:28.446Z,7.00
2023-04-16T06:40:51.376Z,7.10
2023-04-16T06:44:13.118Z,7.10
2023-04-16T06:47:34.823Z,7.10
2023-04-16T06:50:56.423Z,7.10
2023-04-16T06:54:17.963Z,7.10
2023-04-16T06:57:40.872Z,7.10
2023-04-16T07:01:02.609Z,7.20
2023-04-16T07:04:24.267Z,7.20
2023-04-16T07:07:45.909Z,7.20
2023-04-16T07:11:07.488Z,7.10
2023-04-16T07:14:30.383Z,7.20
2023-04-16T07:17:52.012Z,7.20
2023-04-16T07:21:13.948Z,7.20
2023-04-16T07:24:35.702Z,7.20
2023-04-16T07:27:57.277Z,7.20
2023-04-16T07:31:20.276Z,7.20
2023-04-16T07:34:41.845Z,7.20
2023-04-16T07:38:03.407Z,7.20
2023-04-16T07:41:25.009Z,7.20
2023-04-16T07:44:46.590Z,7.20
2023-04-16T07:48:09.489Z,7.30
2023-04-16T07:51:31.060Z,7.30
2023-04-16T07:54:52.615Z,7.30
2023-04-16T07:58:14.195Z,7.40
2023-04-16T08:01:35.769Z,7.50
2023-04-16T08:04:58.979Z,7.40
2023-04-16T08:08:20.601Z,7.40
2023-04-16T08:11:42.286Z,7.40
2023-04-16T08:15:04.304Z,7.40
2023-04-16T08:18:26.000Z,7.50
2023-04-16T08:21:49.757Z,7.60
2023-04-16T08:25:11.571Z,7.60
2023-04-16T08:28:33.319Z,7.60
2023-04-16T08:31:54.961Z,7.60
2023-04-16T08:35:16.804Z,7.60
2023-04-16T08:38:40.205Z,7.60
2023-04-16T08:42:02.434Z,7.60
2023-04-16T08:45:25.762Z,7.60
2023-04-16T08:48:48.677Z,7.60
2023-04-16T08:52:14.105Z,7.60
2023-04-16T08:55:38.531Z,7.70
2023-04-16T08:59:00.371Z,7.80
2023-04-16T09:02:22.470Z,7.80
2023-04-16T09:05:44.139Z,7.70
2023-04-16T09:09:06.275Z,7.70
2023-04-16T09:12:30.060Z,7.70
2023-04-16T09:15:52.884Z,7.80
2023-04-16T09:19:14.465Z,8.00
2023-04-16T09:22:38.551Z,8.10
2023-04-16T09:26:00.701Z,8.20
2023-04-16T09:29:34.534Z,8.20
2023-04-16T09:33:11.556Z,8.30
2023-04-16T09:36:34.039Z,8.40
2023-04-16T09:39:57.133Z,8.50
2023-04-16T09:43:18.835Z,8.60
2023-04-16T09:46:42.000Z,8.70
2023-04-16T09:50:03.620Z,8.90
2023-04-16T09:53:25.768Z,8.80
2023-04-16T09:56:47.334Z,8.70
2023-04-16T10:00:09.829Z,8.70
2023-04-16T10:03:33.427Z,8.60
2023-04-16T10:07:04.499Z,8.50
2023-04-16T10:10:26.080Z,8.50
2023-04-16T10:13:48.305Z,8.50
2023-04-16T10:17:10.470Z,8.60
2023-04-16T10:20:33.687Z,8.60
2023-04-16T10:23:55.413Z,8.50
2023-04-16T10:27:18.211Z,8.50
2023-04-16T10:30:39.984Z,8.40
2023-04-16T10:34:02.280Z,8.50
2023-04-16T10:37:30.812Z,8.50
2023-04-16T10:40:58.430Z,8.50
2023-04-16T10:44:20.630Z,8.50
2023-04-16T10:47:42.273Z,8.50
2023-04-16T10:51:05.090Z,8.50
2023-04-16T10:54:28.770Z,8.50
2023-04-16T10:57:50.362Z,8.70
2023-04-16T11:01:13.715Z,8.80
2023-04-16T11:04:36.218Z,8.90
2023-04-16T11:08:13.386Z,8.90
2023-04-16T11:11:40.831Z,8.80
2023-04-16T11:15:04.516Z,8.80
2023-04-16T11:18:26.265Z,8.90
2023-04-16T11:21:47.861Z,8.90
2023-04-16T11:25:09.504Z,8.80
2023-04-16T11:28:35.427Z,8.80
2023-04-16T11:31:56.960Z,8.80
2023-04-16T11:35:18.940Z,8.90
2023-04-16T11:38:40.648Z,8.90
2023-04-16T11:42:02.256Z,9.00
2023-04-16T11:45:25.223Z,9.10
2023-04-16T11:48:47.404Z,9.00
2023-04-16T11:52:08.977Z,9.00
2023-04-16T11:55:30.576Z,8.90
2023-04-16T11:59:07.207Z,8.90
2023-04-16T12:02:37.656Z,8.90
2023-04-16T12:06:07.223Z,8.80
2023-04-16T12:09:28.782Z,8.80
2023-04-16T12:12:50.343Z,8.80
2023-04-16T12:16:19.137Z,8.80
2023-04-16T12:19:49.268Z,8.90
2023-04-16T12:23:11.192Z,9.00
2023-04-16T12:26:37.123Z,9.00
2023-04-16T12:30:05.335Z,9.00
2023-04-16T12:33:26.909Z,9.10
2023-04-16T12:37:02.655Z,9.10
2023-04-16T12:40:24.447Z,9.10
2023-04-16T12:43:46.022Z,9.00
2023-04-16T12:47:07.597Z,9.00
2023-04-16T12:50:31.181Z,9.00
2023-04-16T12:53:58.044Z,9.10
2023-04-16T12:57:19.659Z,9.10
2023-04-16T13:00:41.297Z,9.10
2023-04-16T13:04:03.125Z,9.20
2023-04-16T13:07:24.838Z,9.20
2023-04-16T13:10:47.761Z,9.10
2023-04-16T13:14:09.323Z,9.10
2023-04-16T13:17:30.951Z,9.00
2023-04-16T13:20:52.863Z,8.90
2023-04-16T13:24:14.428Z,8.90
2023-04-16T13:27:37.328Z,8.90
2023-04-16T13:30:59.077Z,9.00
2023-04-16T13:34:20.658Z,8.90
2023-04-16T13:37:42.282Z,8.90
2023-04-16T13:41:03.861Z,8.90
2023-04-16T13:44:30.851Z,8.80
2023-04-16T13:47:52.876Z,8.80
2023-04-16T13:51:14.470Z,8.80
2023-04-16T13:54:36.005Z,8.80
2023-04-16T13:57:57.648Z,8.80
2023-04-16T14:01:20.579Z,8.90
2023-04-16T14:04:42.254Z,8.90
2023-04-16T14:08:03.824Z,8.80
2023-04-16T14:11:25.525Z,8.90
2023-04-16T14:14:47.138Z,8.90
2023-04-16T14:18:10.064Z,8.90
2023-04-16T14:21:31.618Z,8.90
2023-04-16T14:24:53.173Z,8.80
2023-04-16T14:28:15.811Z,8.80
2023-04-16T14:31:37.743Z,8.80
2023-04-16T14:35:00.683Z,8.80
2023-04-16T14:38:22.255Z,8.80
2023-04-16T14:41:43.795Z,8.80
2023-04-16T14:45:06.249Z,8.80
2023-04-16T14:48:27.842Z,8.80
2023-04-16T14:51:50.733Z,8.90
2023-04-16T14:55:12.433Z,8.80
2023-04-16T14:58:34.028Z,8.80
2023-04-16T15:01:56.092Z,8.80
2023-04-16T15:05:17.696Z,8.80
2023-04-16T15:08:40.547Z,8.90
2023-04-16T15:12:02.092Z,8.80
2023-04-16T15:15:23.738Z,8.80
2023-04-16T15:18:45.276Z,8.70
2023-04-16T15:22:06.877Z,8.70
2023-04-16T15:25:29.894Z,8.70
2023-04-16T15:28:51.502Z,8.60
2023-04-16T15:32:13.064Z,8.60
2023-04-16T15:35:36.557Z,8.60
2023-04-16T15:38:58.131Z,8.70
2023-04-16T15:42:21.017Z,8.70
2023-04-16T15:45:51.191Z,8.70
2023-04-16T15:49:13.149Z,8.70
2023-04-16T15:52:34.986Z,8.70
2023-04-16T15:55:58.307Z,8.70
2023-04-16T15:59:21.555Z,8.70
2023-04-16T16:02:44.229Z,8.70
2023-04-16T16:06:06.297Z,8.70
2023-04-16T16:09:27.999Z,8.70
2023-04-16T16:12:49.796Z,8.60
2023-04-16T16:16:12.876Z,8.60
2023-04-16T16:19:34.467Z,8.60
2023-04-16T16:22:56.295Z,8.50
2023-04-16T16:26:17.839Z,8.50
2023-04-16T16:29:39.394Z,8.50
2023-04-16T16:33:02.359Z,8.40
2023-04-16T16:36:23.957Z,8.50
2023-04-16T16:39:45.639Z,8.40
2023-04-16T16:43:07.252Z,8.40
2023-04-16T16:46:28.954Z,8.40
2023-04-16T16:49:51.899Z,8.40
2023-04-16T16:53:13.471Z,8.40
2023-04-16T16:56:35.125Z,8.40
2023-04-16T16:59:56.670Z,8.50
2023-04-16T17:03:18.382Z,8.40
2023-04-16T17:06:41.388Z,8.40
2023-04-16T17:10:06.014Z,8.40
2023-04-16T17:13:28.347Z,8.50
2023-04-16T17:16:50.015Z,8.50
2023-04-16T17:20:11.647Z,8.50
2023-04-16T17:23:34.521Z,8.50
2023-04-16T17:26:56.060Z,8.60
2023-04-16T17:30:17.800Z,8.50
2023-04-16T17:33:39.401Z,8.60
2023-04-16T17:37:00.921Z,8.50
2023-04-16T17:40:24.579Z,8.60
2023-04-16T17:43:47.682Z,8.60
2023-04-16T17:47:09.384Z,8.60
2023-04-16T17:50:30.957Z,8.60
2023-04-16T17:53:52.595Z,8.60
2023-04-16T17:57:15.535Z,8.60
2023-04-16T18:00:37.099Z,8.60
2023-04-16T18:03:58.984Z,8.50
2023-04-16T18:07:20.643Z,8.50
2023-04-16T18:10:42.275Z,8.50
2023-04-16T18:14:05.514Z,8.50
2023-04-16T18:17:27.332Z,8.50
2023-04-16T18:20:48.965Z,8.40
2023-04-16T18:24:10.908Z,8.50
2023-04-16T18:27:32.835Z,8.40
2023-04-16T18:30:58.720Z,8.50
2023-04-16T18:34:20.828Z,8.50
2023-04-16T18:37:43.134Z,8.40
2023-04-16T18:41:05.257Z,8.50
2023-04-16T18:44:26.969Z,8.50
2023-04-16T18:47:50.928Z,8.40
2023-04-16T18:51:19.854Z,8.40
2023-04-16T18:54:42.162Z,8.40
2023-04-16T18:58:11.840Z,8.40
2023-04-16T19:01:40.837Z,8.40
2023-04-16T19:05:04.203Z,8.40
2023-04-16T19:08:25.871Z,8.40
2023-04-16T19:11:53.300Z,8.40
2023-04-16T19:15:15.842Z,8.40
2023-04-16T19:18:39.999Z,8.40
2023-04-16T19:22:03.602Z,8.40
2023-04-16T19:25:25.358Z,8.40
2023-04-16T19:28:48.733Z,8.40
2023-04-16T19:32:10.378Z,8.40
2023-04-16T19:35:31.983Z,8.40
2023-04-16T19:38:57.780Z,8.40
2023-04-16T19:42:20.516Z,8.40
2023-04-16T19:45:42.574Z,8.40
2023-04-16T19:49:04.300Z,8.40
2023-04-16T19:52:25.930Z,8.40
2023-04-16T19:55:49.152Z,8.40
2023-04-16T19:59:11.052Z,8.40
2023-04-16T20:02:33.043Z,8.40
2023-04-16T20:05:54.766Z,8.40
2023-04-16T20:09:16.333Z,8.30
2023-04-16T20:12:39.278Z,8.40
2023-04-16T20:16:11.239Z,8.30
2023-04-16T20:19:33.864Z,8.30
2023-04-16T20:22:55.551Z,8.30
2023-04-16T20:26:17.269Z,8.30
2023-04-16T20:29:40.408Z,8.30
2023-04-16T20:33:02.204Z,8.30
2023-04-16T20:36:23.836Z,8.30
2023-04-16T20:39:45.512Z,8.30
2023-04-16T20:43:07.076Z,8.30
2023-04-16T20:46:30.111Z,8.30
2023-04-16T20:49:51.848Z,8.30
2023-04-16T20:53:13.423Z,8.30
2023-04-16T20:56:34.997Z,8.30
2023-04-16T20:59:59.212Z,8.30
2023-04-16T21:03:22.364Z,8.30
2023-04-16T21:06:43.991Z,8.30
2023-04-16T21:10:06.203Z,8.30
2023-04-16T21:13:27.788Z,8.30
2023-04-16T21:16:49.351Z,8.30
2023-04-16T21:20:13.023Z,8.40
2023-04-16T21:23:34.580Z,8.30
2023-04-16T21:26:56.144Z,8.40
2023-04-16T21:30:18.097Z,8.40
2023-04-16T21:33:39.634Z,8.30
2023-04-16T21:37:02.566Z,8.30
2023-04-16T21:40:24.275Z,8.40
2023-04-16T21:43:45.870Z,8.30
2023-04-16T21:47:07.532Z,8.40
2023-04-16T21:50:29.209Z,8.30
2023-04-16T21:53:52.126Z,8.40
2023-04-16T21:57:13.708Z,8.40
2023-04-16T22:00:40.925Z,8.40
2023-04-16T22:04:04.475Z,8.30
2023-04-16T22:07:26.049Z,8.30
2023-04-16T22:10:49.077Z,8.30
2023-04-16T22:14:10.647Z,8.30
2023-04-16T22:17:33.341Z,8.20
2023-04-16T22:20:55.813Z,8.20
2023-04-16T22:24:17.763Z,8.20
2023-04-16T22:27:40.988Z,8.20
2023-04-16T22:31:02.627Z,8.20
2023-04-16T22:34:24.336Z,8.20
2023-04-16T22:37:45.995Z,8.20
2023-04-16T22:41:07.623Z,8.30
2023-04-16T22:44:31.416Z,8.30
2023-04-16T22:47:53.384Z,8.30
2023-04-16T22:51:15.098Z,8.30
2023-04-16T22:54:36.664Z,8.30
2023-04-16T22:57:58.264Z,8.20
2023-04-16T23:01:21.214Z,8.20
2023-04-16T23:04:42.791Z,8.20
2023-04-16T23:08:04.470Z,8.20
2023-04-16T23:11:26.039Z,8.20
2023-04-16T23:14:47.599Z,8.20
2023-04-16T23:18:10.481Z,8.20
2023-04-16T23:21:32.029Z,8.10
2023-04-16T23:24:53.724Z,8.10
2023-04-16T23:28:15.307Z,8.20
2023-04-16T23:31:36.876Z,8.20
2023-04-16T23:34:59.890Z,8.20
2023-04-16T23:38:21.460Z,8.20
2023-04-16T23:41:43.004Z,8.20
2023-04-16T23:45:04.878Z,8.20
2023-04-16T23:48:26.436Z,8.20
2023-04-16T23:51:49.304Z,8.10
2023-04-16T23:55:10.877Z,8.10
2023-04-16T23:58:32.417Z,8.10
